createdAt,value
2024-01-10T00:00:28.192Z,77.52
2024-01-10T00:00:58.273Z,77.62
2024-01-10T00:01:28.490Z,77.73
2024-01-10T00:01:58.591Z,77.84
2024-01-10T00:02:28.232Z,77.94
2024-01-10T00:02:58.196Z,78.05
2024-01-10T00:03:28.177Z,78.16
2024-01-10T00:03:58.173Z,78.16
2024-01-10T00:04:28.152Z,78.05
2024-01-10T00:04:58.144Z,78.05
2024-01-10T00:05:28.177Z,78.05
2024-01-10T00:05:58.187Z,78.05
2024-01-10T00:06:28.198Z,78.26
2024-01-10T00:06:58.196Z,78.26
2024-01-10T00:07:28.182Z,78.37
2024-01-10T00:07:58.188Z,78.26
2024-01-10T00:08:28.156Z,78.05
2024-01-10T00:08:58.094Z,77.84
2024-01-10T00:09:28.111Z,77.62
2024-01-10T00:09:58.107Z,77.41
2024-01-10T00:10:28.104Z,77.41
2024-01-10T00:10:58.147Z,77.31
2024-01-10T00:11:28.112Z,77.31
2024-01-10T00:11:58.077Z,77.20
2024-01-10T00:12:28.123Z,77.20
2024-01-10T00:12:58.067Z,77.20
2024-01-10T00:13:28.083Z,77.06
2024-01-10T00:13:58.074Z,76.95
2024-01-10T00:14:28.145Z,76.74
2024-01-10T00:14:58.071Z,76.78
2024-01-10T00:15:28.176Z,76.88
2024-01-10T00:15:58.268Z,76.88
2024-01-10T00:16:28.044Z,76.99
2024-01-10T00:16:58.069Z,76.99
2024-01-10T00:17:28.701Z,77.09
2024-01-10T00:17:58.847Z,77.09
2024-01-10T00:18:28.839Z,76.88
2024-01-10T00:18:58.362Z,76.78
2024-01-10T00:19:28.200Z,76.88
2024-01-10T00:19:58.147Z,76.99
2024-01-10T00:20:28.335Z,77.09
2024-01-10T00:20:58.206Z,77.09
2024-01-10T00:21:28.397Z,76.99
2024-01-10T00:21:59.111Z,76.99
2024-01-10T00:22:28.187Z,76.99
2024-01-10T00:22:58.269Z,77.20
2024-01-10T00:23:28.549Z,77.45
2024-01-10T00:23:58.100Z,77.55
2024-01-10T00:24:28.063Z,77.66
2024-01-10T00:24:58.913Z,77.76
2024-01-10T00:25:28.181Z,77.76
2024-01-10T00:25:58.153Z,77.76
2024-01-10T00:26:28.353Z,77.66
2024-01-10T00:26:58.160Z,77.66
2024-01-10T00:27:28.072Z,77.76
2024-01-10T00:27:58.348Z,77.76
2024-01-10T00:28:29.826Z,77.76
2024-01-10T00:29:01.974Z,77.87
2024-01-10T00:29:29.065Z,78.19
2024-01-10T00:29:58.608Z,78.40
2024-01-10T00:30:28.868Z,78.51
2024-01-10T00:30:58.420Z,78.61
2024-01-10T00:31:28.234Z,78.72
2024-01-10T00:31:58.352Z,78.61
2024-01-10T00:32:29.699Z,78.51
2024-01-10T00:32:58.365Z,78.40
2024-01-10T00:33:28.971Z,78.30
2024-01-10T00:33:58.297Z,78.40
2024-01-10T00:34:28.233Z,78.51
2024-01-10T00:34:58.253Z,78.51
2024-01-10T00:35:28.483Z,78.61
2024-01-10T00:35:58.475Z,78.61
2024-01-10T00:36:28.423Z,78.51
2024-01-10T00:36:58.032Z,78.51
2024-01-10T00:37:28.333Z,78.40
2024-01-10T00:37:58.169Z,78.40
2024-01-10T00:38:28.885Z,78.40
2024-01-10T00:38:58.379Z,78.19
2024-01-10T00:39:28.069Z,78.19
2024-01-10T00:39:58.338Z,78.19
2024-01-10T00:40:27.968Z,78.30
2024-01-10T00:40:58.193Z,78.40
2024-01-10T00:41:28.128Z,78.51
2024-01-10T00:41:58.383Z,78.51
2024-01-10T00:42:28.098Z,78.40
2024-01-10T00:42:58.106Z,78.30
2024-01-10T00:43:28.466Z,78.19
2024-01-10T00:43:59.473Z,77.94
2024-01-10T00:44:28.015Z,77.94
2024-01-10T00:44:58.681Z,77.98
2024-01-10T00:45:28.288Z,77.98
2024-01-10T00:45:58.950Z,78.05
2024-01-10T00:46:28.193Z,78.05
2024-01-10T00:46:58.610Z,78.16
2024-01-10T00:47:28.228Z,78.16
2024-01-10T00:47:58.139Z,77.94
2024-01-10T00:48:27.827Z,77.94
2024-01-10T00:48:58.150Z,77.94
2024-01-10T00:49:28.021Z,77.94
2024-01-10T00:49:58.302Z,78.05
2024-01-10T00:50:28.033Z,78.05
2024-01-10T00:50:58.203Z,77.94
2024-01-10T00:51:27.841Z,77.73
2024-01-10T00:51:58.911Z,77.73
2024-01-10T00:52:27.829Z,77.73
2024-01-10T00:52:57.939Z,77.94
2024-01-10T00:53:28.379Z,78.05
2024-01-10T00:53:58.072Z,77.94
2024-01-10T00:54:28.784Z,77.94
2024-01-10T00:54:58.119Z,77.94
2024-01-10T00:55:28.053Z,77.84
2024-01-10T00:55:58.768Z,77.73
2024-01-10T00:56:28.192Z,77.87
2024-01-10T00:56:57.785Z,77.98
2024-01-10T00:57:28.049Z,78.08
2024-01-10T00:57:58.776Z,78.08
2024-01-10T00:58:27.834Z,78.08
2024-01-10T00:58:57.957Z,78.19
2024-01-10T00:59:27.955Z,78.19
2024-01-10T00:59:58.599Z,78.19
2024-01-10T01:00:28.036Z,78.19
2024-01-10T01:00:58.023Z,78.08
2024-01-10T01:01:28.116Z,78.05
2024-01-10T01:01:58.100Z,77.87
2024-01-10T01:02:27.912Z,77.87
2024-01-10T01:02:58.082Z,77.98
2024-01-10T01:03:28.030Z,78.08
2024-01-10T01:03:58.191Z,78.19
2024-01-10T01:04:28.195Z,78.30
2024-01-10T01:04:58.106Z,78.19
2024-01-10T01:05:28.215Z,78.08
2024-01-10T01:05:58.158Z,78.08
2024-01-10T01:06:28.034Z,78.08
2024-01-10T01:06:57.687Z,78.40
2024-01-10T01:07:27.872Z,78.51
2024-01-10T01:07:57.999Z,78.61
2024-01-10T01:08:27.882Z,78.72
2024-01-10T01:08:58.276Z,78.83
2024-01-10T01:09:27.636Z,78.93
2024-01-10T01:09:57.717Z,79.04
2024-01-10T01:10:27.762Z,79.04
2024-01-10T01:10:58.167Z,79.14
2024-01-10T01:11:28.595Z,79.14
2024-01-10T01:11:57.821Z,79.25
2024-01-10T01:12:27.720Z,79.14
2024-01-10T01:12:57.881Z,79.04
2024-01-10T01:13:27.754Z,78.93
2024-01-10T01:13:58.217Z,78.83
2024-01-10T01:14:28.008Z,78.83
2024-01-10T01:14:57.753Z,78.83
2024-01-10T01:15:27.956Z,78.72
2024-01-10T01:15:57.810Z,78.72
2024-01-10T01:16:27.748Z,78.72
2024-01-10T01:16:57.792Z,78.61
2024-01-10T01:17:27.817Z,78.61
2024-01-10T01:17:57.723Z,78.61
2024-01-10T01:18:27.738Z,78.61
2024-01-10T01:18:57.776Z,78.72
2024-01-10T01:19:28.027Z,78.72
2024-01-10T01:19:57.933Z,78.72
2024-01-10T01:20:30.493Z,78.61
2024-01-10T01:20:57.709Z,78.47
2024-01-10T01:21:27.965Z,78.47
2024-01-10T01:21:57.945Z,78.37
2024-01-10T01:22:27.509Z,78.16
2024-01-10T01:22:58.000Z,78.16
2024-01-10T01:23:36.015Z,78.16
2024-01-10T01:23:57.692Z,78.16
2024-01-10T01:24:27.801Z,78.16
2024-01-10T01:24:57.769Z,78.05
2024-01-10T01:25:28.120Z,78.05
2024-01-10T01:25:58.073Z,78.05
2024-01-10T01:26:27.586Z,77.84
2024-01-10T01:26:57.568Z,77.84
2024-01-10T01:27:27.700Z,77.84
2024-01-10T01:27:57.954Z,77.73
2024-01-10T01:28:27.810Z,77.52
2024-01-10T01:28:58.233Z,77.31
2024-01-10T01:29:27.736Z,77.31
2024-01-10T01:29:57.892Z,77.20
2024-01-10T01:30:27.973Z,77.20
2024-01-10T01:30:57.786Z,77.31
2024-01-10T01:31:27.681Z,77.31
2024-01-10T01:31:57.904Z,77.41
2024-01-10T01:32:28.092Z,77.52
2024-01-10T01:32:58.062Z,77.73
2024-01-10T01:33:27.615Z,77.84
2024-01-10T01:33:58.215Z,77.84
2024-01-10T01:34:27.835Z,77.87
2024-01-10T01:34:57.741Z,77.87
2024-01-10T01:35:28.119Z,77.98
2024-01-10T01:35:57.913Z,77.98
2024-01-10T01:36:27.985Z,78.08
2024-01-10T01:36:57.590Z,78.08
2024-01-10T01:37:27.773Z,78.19
2024-01-10T01:37:57.736Z,78.30
2024-01-10T01:38:27.803Z,78.16
2024-01-10T01:38:58.470Z,78.16
2024-01-10T01:39:27.564Z,78.26
2024-01-10T01:39:58.226Z,78.26
2024-01-10T01:40:27.989Z,78.19
2024-01-10T01:40:58.047Z,78.05
2024-01-10T01:41:27.819Z,78.16
2024-01-10T01:41:57.931Z,78.16
2024-01-10T01:42:27.640Z,77.94
2024-01-10T01:42:58.102Z,77.73
2024-01-10T01:43:27.545Z,77.62
2024-01-10T01:43:57.341Z,77.73
2024-01-10T01:44:27.529Z,77.84
2024-01-10T01:44:57.450Z,77.84
2024-01-10T01:45:27.707Z,77.94
2024-01-10T01:45:57.635Z,78.05
2024-01-10T01:46:27.414Z,78.05
2024-01-10T01:46:57.791Z,77.94
2024-01-10T01:47:27.436Z,77.94
2024-01-10T01:47:57.846Z,77.84
2024-01-10T01:48:28.173Z,77.84
2024-01-10T01:48:57.497Z,77.73
2024-01-10T01:49:28.083Z,77.73
2024-01-10T01:49:57.325Z,77.84
2024-01-10T01:50:27.692Z,77.94
2024-01-10T01:50:57.799Z,78.05
2024-01-10T01:51:27.443Z,78.16
2024-01-10T01:51:57.382Z,78.16
2024-01-10T01:52:27.779Z,78.26
2024-01-10T01:52:58.237Z,78.30
2024-01-10T01:53:27.554Z,78.26
2024-01-10T01:53:57.654Z,78.26
2024-01-10T01:54:27.381Z,78.26
2024-01-10T01:54:58.097Z,78.26
2024-01-10T01:55:27.867Z,78.26
2024-01-10T01:55:58.193Z,78.05
2024-01-10T01:56:27.544Z,77.84
2024-01-10T01:56:58.198Z,77.73
2024-01-10T01:57:27.402Z,77.73
2024-01-10T01:57:57.225Z,77.84
2024-01-10T01:58:27.570Z,77.84
2024-01-10T01:58:57.603Z,77.98
2024-01-10T01:59:27.473Z,78.05
2024-01-10T01:59:57.331Z,78.08
2024-01-10T02:00:27.612Z,77.98
2024-01-10T02:00:58.096Z,77.98
2024-01-10T02:01:27.302Z,77.98
2024-01-10T02:01:57.304Z,78.08
2024-01-10T02:02:27.258Z,77.98
2024-01-10T02:02:57.434Z,78.08
2024-01-10T02:03:27.491Z,78.19
2024-01-10T02:03:57.566Z,78.30
2024-01-10T02:04:27.344Z,78.30
2024-01-10T02:04:57.482Z,78.30
2024-01-10T02:05:27.426Z,78.19
2024-01-10T02:05:57.340Z,78.30
2024-01-10T02:06:28.000Z,78.40
2024-01-10T02:06:57.963Z,78.40
2024-01-10T02:07:27.363Z,78.30
2024-01-10T02:07:57.481Z,78.30
2024-01-10T02:08:27.507Z,78.19
2024-01-10T02:08:57.214Z,78.19
2024-01-10T02:09:27.142Z,78.30
2024-01-10T02:09:57.052Z,78.30
2024-01-10T02:10:27.426Z,78.40
2024-01-10T02:10:57.822Z,78.51
2024-01-10T02:11:27.426Z,78.72
2024-01-10T02:11:57.606Z,78.83
2024-01-10T02:12:27.373Z,78.93
2024-01-10T02:12:57.261Z,78.93
2024-01-10T02:13:27.176Z,78.83
2024-01-10T02:13:57.846Z,78.61
2024-01-10T02:14:27.173Z,78.51
2024-01-10T02:14:58.176Z,78.61
2024-01-10T02:15:27.236Z,78.61
2024-01-10T02:15:57.394Z,78.61
2024-01-10T02:16:27.501Z,78.61
2024-01-10T02:16:57.128Z,78.61
2024-01-10T02:17:27.479Z,78.51
2024-01-10T02:17:57.200Z,78.51
2024-01-10T02:18:27.729Z,78.61
2024-01-10T02:18:58.109Z,78.72
2024-01-10T02:19:27.197Z,78.72
2024-01-10T02:19:57.089Z,78.61
2024-01-10T02:20:27.173Z,78.61
2024-01-10T02:20:57.142Z,78.51
2024-01-10T02:21:27.352Z,78.55
2024-01-10T02:21:58.112Z,78.55
2024-01-10T02:22:27.273Z,78.55
2024-01-10T02:22:57.273Z,78.55
2024-01-10T02:23:27.348Z,78.65
2024-01-10T02:23:57.007Z,78.65
2024-01-10T02:24:27.748Z,78.86
2024-01-10T02:24:57.460Z,78.97
2024-01-10T02:25:27.392Z,79.18
2024-01-10T02:25:57.183Z,79.18
2024-01-10T02:26:27.281Z,79.18
2024-01-10T02:26:58.472Z,79.28
2024-01-10T02:27:27.921Z,79.39
2024-01-10T02:27:57.357Z,79.39
2024-01-10T02:28:26.925Z,79.36
2024-01-10T02:28:57.056Z,79.14
2024-01-10T02:29:26.966Z,79.04
2024-01-10T02:29:57.648Z,79.04
2024-01-10T02:30:27.660Z,79.04
2024-01-10T02:30:57.470Z,79.04
2024-01-10T02:31:26.905Z,79.14
2024-01-10T02:31:57.092Z,79.25
2024-01-10T02:32:27.338Z,79.46
2024-01-10T02:32:57.013Z,79.46
2024-01-10T02:33:27.497Z,79.57
2024-01-10T02:33:57.473Z,79.46
2024-01-10T02:34:26.839Z,79.14
2024-01-10T02:34:57.422Z,79.14
2024-01-10T02:35:27.233Z,79.04
2024-01-10T02:35:57.193Z,78.93
2024-01-10T02:36:28.316Z,78.83
2024-01-10T02:36:57.097Z,78.86
2024-01-10T02:37:27.291Z,78.97
2024-01-10T02:37:57.121Z,79.18
2024-01-10T02:38:28.244Z,79.39
2024-01-10T02:38:57.006Z,79.50
2024-01-10T02:39:27.317Z,79.60
2024-01-10T02:39:57.801Z,79.60
2024-01-10T02:40:27.134Z,79.50
2024-01-10T02:40:57.181Z,79.50
2024-01-10T02:41:26.980Z,79.39
2024-01-10T02:41:57.124Z,79.28
2024-01-10T02:42:27.226Z,79.18
2024-01-10T02:42:57.384Z,79.08
2024-01-10T02:43:27.110Z,79.18
2024-01-10T02:43:57.485Z,79.18
2024-01-10T02:44:27.151Z,79.28
2024-01-10T02:44:57.134Z,79.39
2024-01-10T02:45:27.706Z,79.28
2024-01-10T02:45:57.132Z,79.08
2024-01-10T02:46:27.444Z,79.08
2024-01-10T02:46:57.560Z,79.18
2024-01-10T02:47:27.999Z,79.28
2024-01-10T02:47:57.157Z,79.39
2024-01-10T02:48:27.330Z,79.50
2024-01-10T02:48:57.459Z,79.64
2024-01-10T02:49:27.274Z,79.71
2024-01-10T02:49:58.633Z,79.75
2024-01-10T02:50:27.544Z,79.71
2024-01-10T02:50:56.734Z,79.71
2024-01-10T02:51:26.937Z,79.60
2024-01-10T02:51:56.804Z,79.50
2024-01-10T02:52:27.178Z,79.28
2024-01-10T02:52:57.888Z,79.18
2024-01-10T02:53:27.526Z,79.28
2024-01-10T02:53:56.825Z,79.32
2024-01-10T02:54:27.802Z,79.22
2024-01-10T02:54:57.966Z,79.22
2024-01-10T02:55:26.919Z,79.22
2024-01-10T02:55:56.915Z,79.32
2024-01-10T02:56:27.109Z,79.53
2024-01-10T02:56:57.431Z,79.75
2024-01-10T02:57:27.096Z,79.85
2024-01-10T02:57:57.559Z,79.85
2024-01-10T02:58:27.458Z,79.96
2024-01-10T02:58:57.926Z,79.96
2024-01-10T02:59:27.611Z,79.96
2024-01-10T02:59:57.639Z,79.96
2024-01-10T03:00:27.130Z,79.96
2024-01-10T03:00:57.855Z,79.85
2024-01-10T03:01:26.842Z,79.85
2024-01-10T03:01:57.861Z,79.85
2024-01-10T03:02:27.114Z,79.85
2024-01-10T03:02:57.129Z,79.96
2024-01-10T03:03:27.117Z,79.82
2024-01-10T03:03:58.334Z,79.82
2024-01-10T03:04:26.760Z,79.71
2024-01-10T03:04:57.821Z,79.60
2024-01-10T03:05:26.704Z,79.50
2024-01-10T03:05:57.670Z,79.39
2024-01-10T03:06:26.953Z,79.39
2024-01-10T03:06:56.512Z,79.28
2024-01-10T03:07:26.616Z,79.28
2024-01-10T03:07:57.072Z,79.28
2024-01-10T03:08:26.895Z,79.18
2024-01-10T03:08:56.686Z,79.28
2024-01-10T03:09:26.680Z,79.39
2024-01-10T03:09:56.834Z,79.50
2024-01-10T03:10:27.023Z,79.39
2024-01-10T03:10:57.008Z,79.39
2024-01-10T03:11:26.564Z,79.28
2024-01-10T03:11:56.720Z,79.18
2024-01-10T03:12:26.673Z,79.08
2024-01-10T03:12:57.126Z,78.97
2024-01-10T03:13:27.232Z,79.08
2024-01-10T03:13:56.700Z,79.08
2024-01-10T03:14:27.340Z,79.08
2024-01-10T03:14:56.879Z,79.18
2024-01-10T03:15:26.695Z,79.28
2024-01-10T03:15:56.509Z,79.39
2024-01-10T03:16:26.482Z,79.50
2024-01-10T03:16:56.608Z,79.64
2024-01-10T03:17:26.665Z,79.71
2024-01-10T03:17:57.298Z,79.71
2024-01-10T03:18:26.832Z,79.71
2024-01-10T03:18:57.474Z,79.60
2024-01-10T03:19:26.672Z,79.50
2024-01-10T03:19:56.399Z,79.50
2024-01-10T03:20:26.646Z,79.50
2024-01-10T03:20:56.520Z,79.60
2024-01-10T03:21:26.520Z,79.60
2024-01-10T03:21:56.686Z,79.50
2024-01-10T03:22:26.402Z,79.39
2024-01-10T03:22:57.279Z,79.50
2024-01-10T03:23:26.485Z,79.39
2024-01-10T03:23:56.619Z,79.39
2024-01-10T03:24:26.542Z,79.39
2024-01-10T03:24:56.428Z,79.39
2024-01-10T03:25:26.835Z,79.39
2024-01-10T03:25:56.496Z,79.39
2024-01-10T03:26:26.261Z,79.28
2024-01-10T03:26:56.255Z,79.43
2024-01-10T03:27:26.286Z,79.64
2024-01-10T03:27:56.215Z,79.85
2024-01-10T03:28:26.216Z,80.07
2024-01-10T03:28:56.351Z,80.17
2024-01-10T03:29:26.273Z,80.07
2024-01-10T03:29:56.245Z,80.07
2024-01-10T03:30:26.242Z,80.07
2024-01-10T03:30:56.215Z,80.17
2024-01-10T03:31:26.309Z,80.28
2024-01-10T03:31:56.412Z,80.28
2024-01-10T03:32:26.263Z,80.38
2024-01-10T03:32:56.305Z,80.38
2024-01-10T03:33:26.221Z,80.49
2024-01-10T03:33:56.248Z,80.49
2024-01-10T03:34:26.176Z,80.49
2024-01-10T03:34:56.211Z,80.49
2024-01-10T03:35:26.205Z,80.38
2024-01-10T03:35:56.179Z,80.38
2024-01-10T03:36:26.155Z,80.38
2024-01-10T03:36:56.157Z,80.38
2024-01-10T03:37:26.128Z,80.49
2024-01-10T03:37:56.323Z,80.60
2024-01-10T03:38:26.168Z,80.81
2024-01-10T03:38:56.140Z,80.81
2024-01-10T03:39:26.124Z,80.91
2024-01-10T03:39:56.137Z,81.02
2024-01-10T03:40:26.121Z,81.13
2024-01-10T03:40:56.121Z,81.23
2024-01-10T03:41:26.172Z,81.23
2024-01-10T03:41:56.090Z,81.34
2024-01-10T03:42:26.084Z,81.34
2024-01-10T03:42:56.075Z,81.45
2024-01-10T03:43:27.022Z,81.34
2024-01-10T03:43:56.106Z,81.23
2024-01-10T03:44:26.065Z,81.13
2024-01-10T03:44:56.072Z,81.02
2024-01-10T03:45:26.186Z,80.81
2024-01-10T03:45:56.261Z,80.77
2024-01-10T03:46:26.084Z,80.66
2024-01-10T03:46:56.091Z,80.70
2024-01-10T03:47:26.359Z,80.66
2024-01-10T03:47:56.090Z,80.77
2024-01-10T03:48:26.025Z,80.77
2024-01-10T03:48:56.052Z,80.88
2024-01-10T03:49:26.061Z,80.77
2024-01-10T03:49:56.100Z,80.77
2024-01-10T03:50:26.102Z,80.81
2024-01-10T03:50:55.988Z,80.88
2024-01-10T03:51:25.986Z,81.02
2024-01-10T03:51:56.021Z,80.91
2024-01-10T03:52:25.991Z,80.81
2024-01-10T03:52:56.030Z,80.81
2024-01-10T03:53:26.046Z,80.91
2024-01-10T03:53:55.979Z,81.02
2024-01-10T03:54:25.964Z,80.91
2024-01-10T03:54:55.969Z,80.91
2024-01-10T03:55:25.954Z,81.02
2024-01-10T03:55:55.972Z,81.02
2024-01-10T03:56:26.008Z,81.02
2024-01-10T03:56:55.973Z,81.02
2024-01-10T03:57:25.945Z,81.13
2024-01-10T03:57:55.933Z,81.13
2024-01-10T03:58:25.921Z,81.13
2024-01-10T03:58:56.801Z,81.13
2024-01-10T03:59:26.078Z,81.09
2024-01-10T03:59:56.160Z,80.99
2024-01-10T04:00:25.908Z,80.88
2024-01-10T04:00:55.920Z,80.88
2024-01-10T04:01:25.957Z,80.88
2024-01-10T04:01:56.130Z,80.88
2024-01-10T04:02:26.090Z,80.88
2024-01-10T04:02:55.939Z,80.77
2024-01-10T04:03:25.878Z,80.77
2024-01-10T04:03:55.885Z,80.77
2024-01-10T04:04:25.882Z,80.77
2024-01-10T04:04:55.957Z,80.77
2024-01-10T04:05:25.977Z,80.77
2024-01-10T04:05:55.900Z,80.88
2024-01-10T04:06:25.921Z,80.88
2024-01-10T04:06:55.866Z,80.88
2024-01-10T04:07:25.845Z,80.77
2024-01-10T04:07:55.834Z,80.66
2024-01-10T04:08:25.932Z,80.56
2024-01-10T04:08:55.845Z,80.66
2024-01-10T04:09:25.824Z,80.66
2024-01-10T04:09:55.820Z,80.77
2024-01-10T04:10:25.820Z,80.77
2024-01-10T04:10:55.809Z,80.77
2024-01-10T04:11:25.860Z,80.88
2024-01-10T04:11:55.837Z,80.88
2024-01-10T04:12:25.780Z,80.99
2024-01-10T04:12:55.787Z,80.99
2024-01-10T04:13:25.967Z,80.88
2024-01-10T04:13:56.021Z,80.77
2024-01-10T04:14:25.796Z,80.66
2024-01-10T04:14:55.777Z,80.66
2024-01-10T04:15:25.773Z,80.66
2024-01-10T04:15:55.780Z,80.66
2024-01-10T04:16:25.753Z,80.66
2024-01-10T04:16:55.811Z,80.77
2024-01-10T04:17:25.832Z,80.77
2024-01-10T04:17:55.800Z,80.88
2024-01-10T04:18:25.837Z,80.99
2024-01-10T04:18:55.797Z,80.99
2024-01-10T04:19:25.733Z,81.09
2024-01-10T04:19:55.777Z,80.99
2024-01-10T04:20:25.850Z,80.99
2024-01-10T04:20:55.784Z,80.99
2024-01-10T04:21:25.734Z,80.99
2024-01-10T04:21:55.744Z,80.99
2024-01-10T04:22:25.709Z,80.99
2024-01-10T04:22:55.728Z,80.88
2024-01-10T04:23:25.755Z,80.88
2024-01-10T04:23:55.698Z,80.77
2024-01-10T04:24:25.681Z,80.77
2024-01-10T04:24:55.718Z,80.77
2024-01-10T04:25:25.671Z,80.77
2024-01-10T04:25:55.716Z,80.77
2024-01-10T04:26:25.703Z,80.77
2024-01-10T04:26:55.674Z,80.88
2024-01-10T04:27:25.816Z,80.88
2024-01-10T04:27:55.867Z,80.77
2024-01-10T04:28:25.649Z,80.66
2024-01-10T04:28:55.718Z,80.66
2024-01-10T04:29:25.662Z,80.66
2024-01-10T04:29:55.628Z,80.77
2024-01-10T04:30:25.649Z,80.77
2024-01-10T04:30:55.641Z,80.77
2024-01-10T04:31:25.634Z,80.88
2024-01-10T04:31:55.669Z,80.88
2024-01-10T04:32:25.682Z,80.99
2024-01-10T04:32:55.646Z,80.99
2024-01-10T04:33:25.702Z,80.88
2024-01-10T04:33:55.632Z,80.88
2024-01-10T04:34:26.548Z,80.66
2024-01-10T04:34:55.631Z,80.46
2024-01-10T04:35:25.737Z,80.35
2024-01-10T04:35:55.585Z,80.13
2024-01-10T04:36:25.567Z,80.24
2024-01-10T04:36:55.569Z,80.38
2024-01-10T04:37:25.567Z,80.49
2024-01-10T04:37:55.624Z,80.70
2024-01-10T04:38:25.614Z,80.81
2024-01-10T04:38:55.560Z,80.81
2024-01-10T04:39:25.571Z,80.91
2024-01-10T04:39:55.556Z,81.13
2024-01-10T04:40:25.574Z,81.23
2024-01-10T04:40:55.566Z,81.34
2024-01-10T04:41:25.672Z,81.34
2024-01-10T04:41:55.730Z,81.45
2024-01-10T04:42:25.537Z,81.45
2024-01-10T04:42:55.553Z,81.34
2024-01-10T04:43:25.544Z,81.34
2024-01-10T04:43:55.524Z,81.45
2024-01-10T04:44:25.523Z,81.56
2024-01-10T04:44:55.495Z,81.76
2024-01-10T04:45:25.506Z,81.87
2024-01-10T04:45:55.481Z,81.87
2024-01-10T04:46:25.507Z,81.87
2024-01-10T04:46:55.558Z,81.76
2024-01-10T04:47:25.556Z,81.76
2024-01-10T04:47:55.507Z,81.87
2024-01-10T04:48:25.645Z,81.87
2024-01-10T04:48:55.503Z,81.87
2024-01-10T04:49:25.456Z,81.76
2024-01-10T04:49:55.456Z,81.66
2024-01-10T04:50:25.511Z,81.45
2024-01-10T04:50:55.439Z,81.34
2024-01-10T04:51:25.436Z,81.34
2024-01-10T04:51:55.448Z,81.34
2024-01-10T04:52:25.433Z,81.34
2024-01-10T04:52:55.438Z,81.34
2024-01-10T04:53:25.493Z,81.13
2024-01-10T04:53:55.420Z,81.13
2024-01-10T04:54:25.405Z,80.91
2024-01-10T04:54:55.409Z,80.81
2024-01-10T04:55:25.564Z,80.70
2024-01-10T04:55:55.638Z,80.70
2024-01-10T04:56:25.466Z,80.81
2024-01-10T04:56:55.376Z,80.81
2024-01-10T04:57:25.371Z,80.91
2024-01-10T04:57:55.372Z,80.91
2024-01-10T04:58:25.362Z,80.91
2024-01-10T04:58:55.428Z,80.91
2024-01-10T04:59:25.432Z,81.02
2024-01-10T04:59:55.372Z,81.02
2024-01-10T05:00:25.396Z,80.91
2024-01-10T05:00:55.417Z,80.81
2024-01-10T05:01:25.349Z,80.81
2024-01-10T05:01:55.352Z,80.81
2024-01-10T05:02:25.422Z,80.81
2024-01-10T05:02:55.437Z,80.91
2024-01-10T05:03:25.350Z,81.02
2024-01-10T05:03:55.313Z,80.91
2024-01-10T05:04:25.320Z,80.91
2024-01-10T05:04:55.381Z,80.91
2024-01-10T05:05:25.650Z,80.91
2024-01-10T05:05:55.453Z,80.91
2024-01-10T05:06:25.346Z,81.02
2024-01-10T05:06:55.315Z,81.13
2024-01-10T05:07:25.298Z,81.34
2024-01-10T05:07:55.332Z,81.34
2024-01-10T05:08:25.328Z,81.23
2024-01-10T05:08:55.282Z,81.23
2024-01-10T05:09:25.371Z,81.23
2024-01-10T05:09:55.494Z,81.23
2024-01-10T05:10:25.255Z,81.23
2024-01-10T05:10:55.259Z,81.16
2024-01-10T05:11:25.271Z,81.27
2024-01-10T05:11:55.235Z,81.27
2024-01-10T05:12:25.247Z,81.27
2024-01-10T05:12:55.247Z,81.16
2024-01-10T05:13:25.224Z,81.16
2024-01-10T05:13:55.235Z,81.16
2024-01-10T05:14:25.237Z,81.16
2024-01-10T05:14:55.230Z,81.27
2024-01-10T05:15:25.190Z,81.38
2024-01-10T05:15:55.203Z,81.48
2024-01-10T05:16:25.196Z,81.59
2024-01-10T05:16:55.229Z,81.59
2024-01-10T05:17:25.243Z,81.59
2024-01-10T05:17:55.207Z,81.48
2024-01-10T05:18:25.189Z,81.48
2024-01-10T05:18:55.200Z,81.59
2024-01-10T05:19:25.200Z,81.59
2024-01-10T05:19:55.267Z,81.70
2024-01-10T05:20:25.181Z,81.80
2024-01-10T05:20:55.163Z,81.91
2024-01-10T05:21:25.145Z,81.91
2024-01-10T05:21:55.140Z,82.01
2024-01-10T05:22:25.158Z,82.01
2024-01-10T05:22:55.132Z,82.12
2024-01-10T05:23:25.277Z,82.12
2024-01-10T05:23:55.348Z,82.23
2024-01-10T05:24:25.112Z,82.12
2024-01-10T05:24:55.112Z,82.12
2024-01-10T05:25:25.104Z,82.12
2024-01-10T05:25:55.198Z,82.12
2024-01-10T05:26:25.109Z,82.01
2024-01-10T05:26:55.097Z,81.91
2024-01-10T05:27:25.089Z,81.80
2024-01-10T05:27:55.087Z,81.80
2024-01-10T05:28:25.080Z,81.80
2024-01-10T05:28:55.114Z,81.80
2024-01-10T05:29:25.224Z,81.91
2024-01-10T05:29:55.079Z,81.91
2024-01-10T05:30:28.492Z,81.91
2024-01-10T05:30:55.127Z,81.80
2024-01-10T05:31:25.074Z,81.66
2024-01-10T05:31:55.144Z,81.70
2024-01-10T05:32:25.157Z,81.80
2024-01-10T05:32:55.114Z,81.76
2024-01-10T05:33:25.134Z,81.76
2024-01-10T05:33:55.091Z,81.91
2024-01-10T05:34:25.146Z,81.91
2024-01-10T05:34:55.019Z,81.91
2024-01-10T05:35:25.044Z,81.87
2024-01-10T05:35:55.007Z,81.87
2024-01-10T05:36:24.997Z,81.66
2024-01-10T05:36:55.011Z,81.56
2024-01-10T05:37:25.110Z,81.45
2024-01-10T05:37:55.234Z,81.34
2024-01-10T05:38:25.035Z,81.23
2024-01-10T05:38:54.994Z,81.13
2024-01-10T05:39:25.013Z,81.02
2024-01-10T05:39:54.981Z,80.91
2024-01-10T05:40:25.022Z,81.02
2024-01-10T05:40:55.016Z,81.02
2024-01-10T05:41:25.047Z,80.91
2024-01-10T05:41:54.959Z,80.81
2024-01-10T05:42:24.947Z,80.81
2024-01-10T05:42:54.954Z,80.70
2024-01-10T05:43:24.944Z,80.70
2024-01-10T05:43:55.570Z,80.70
2024-01-10T05:44:24.976Z,80.81
2024-01-10T05:44:54.956Z,80.81
2024-01-10T05:45:24.928Z,80.81
2024-01-10T05:45:54.953Z,80.91
2024-01-10T05:46:24.910Z,80.91
2024-01-10T05:46:54.936Z,80.81
2024-01-10T05:47:24.966Z,80.60
2024-01-10T05:47:54.957Z,80.49
2024-01-10T05:48:24.975Z,80.49
2024-01-10T05:48:55.042Z,80.60
2024-01-10T05:49:24.929Z,80.74
2024-01-10T05:49:54.887Z,80.91
2024-01-10T05:50:25.020Z,81.05
2024-01-10T05:50:54.864Z,81.05
2024-01-10T05:51:24.970Z,80.95
2024-01-10T05:51:55.089Z,80.91
2024-01-10T05:52:24.852Z,80.85
2024-01-10T05:52:54.909Z,80.85
2024-01-10T05:53:24.913Z,80.85
2024-01-10T05:53:54.863Z,80.85
2024-01-10T05:54:25.540Z,80.95
2024-01-10T05:54:54.856Z,80.95
2024-01-10T05:55:24.927Z,81.05
2024-01-10T05:55:54.833Z,81.05
2024-01-10T05:56:24.862Z,81.05
2024-01-10T05:56:54.901Z,81.05
2024-01-10T05:57:24.833Z,81.05
2024-01-10T05:57:54.799Z,81.05
2024-01-10T05:58:24.785Z,81.05
2024-01-10T05:58:54.833Z,81.16
2024-01-10T05:59:27.637Z,81.27
2024-01-10T05:59:54.793Z,81.38
2024-01-10T06:00:24.793Z,81.38
2024-01-10T06:00:54.838Z,81.48
2024-01-10T06:01:24.788Z,81.70
2024-01-10T06:01:54.817Z,81.80
2024-01-10T06:02:24.839Z,81.80
2024-01-10T06:02:54.768Z,81.80
2024-01-10T06:03:24.840Z,81.66
2024-01-10T06:03:54.816Z,81.66
2024-01-10T06:04:24.776Z,81.45
2024-01-10T06:04:54.771Z,81.13
2024-01-10T06:05:24.968Z,80.91
2024-01-10T06:05:55.026Z,80.85
2024-01-10T06:06:24.778Z,80.85
2024-01-10T06:06:54.724Z,80.85
2024-01-10T06:07:24.716Z,80.95
2024-01-10T06:07:54.757Z,81.16
2024-01-10T06:08:24.760Z,81.16
2024-01-10T06:08:54.701Z,80.95
2024-01-10T06:09:24.699Z,80.85
2024-01-10T06:09:54.685Z,80.74
2024-01-10T06:10:24.682Z,80.74
2024-01-10T06:10:54.758Z,80.63
2024-01-10T06:11:24.714Z,80.52
2024-01-10T06:11:54.684Z,80.42
2024-01-10T06:12:24.726Z,80.42
2024-01-10T06:12:54.666Z,80.42
2024-01-10T06:13:24.642Z,80.52
2024-01-10T06:13:57.578Z,80.52
2024-01-10T06:14:24.741Z,80.63
2024-01-10T06:14:54.663Z,80.88
2024-01-10T06:15:24.713Z,81.09
2024-01-10T06:15:54.637Z,81.20
2024-01-10T06:16:24.688Z,81.30
2024-01-10T06:16:56.604Z,81.30
2024-01-10T06:17:24.721Z,81.30
2024-01-10T06:17:54.808Z,81.41
2024-01-10T06:18:24.697Z,81.52
2024-01-10T06:18:54.649Z,81.73
2024-01-10T06:19:24.800Z,81.73
2024-01-10T06:19:54.846Z,81.84
2024-01-10T06:20:24.720Z,81.73
2024-01-10T06:20:54.575Z,81.84
2024-01-10T06:21:25.568Z,81.73
2024-01-10T06:21:54.570Z,81.84
2024-01-10T06:22:24.554Z,81.73
2024-01-10T06:22:54.627Z,81.73
2024-01-10T06:23:24.621Z,81.63
2024-01-10T06:23:54.551Z,81.73
2024-01-10T06:24:24.552Z,81.73
2024-01-10T06:24:54.556Z,81.73
2024-01-10T06:25:24.535Z,81.73
2024-01-10T06:25:54.550Z,81.63
2024-01-10T06:26:25.581Z,81.52